createdAt,value
2019-04-21T00:02:22.036Z,100743.87
2019-04-21T00:04:56.893Z,100745.30
2019-04-21T00:07:31.391Z,100747.53
2019-04-21T00:10:18.746Z,100742.98
2019-04-21T00:12:48.938Z,100740.30
2019-04-21T00:15:09.761Z,100739.61
2019-04-21T00:17:29.571Z,100743.81
2019-04-21T00:20:09.031Z,100736.16
2019-04-21T00:22:41.308Z,100738.63
2019-04-21T00:25:32.134Z,100729.91
2019-04-21T00:28:04.714Z,100723.91
2019-04-21T00:30:58.102Z,100720.18
2019-04-21T00:33:09.140Z,100722.81
2019-04-21T00:35:41.378Z,100721.72
2019-04-21T00:38:22.802Z,100721.05
2019-04-21T00:41:14.373Z,100724.20
2019-04-21T00:43:33.588Z,100715.95
2019-04-21T00:45:57.798Z,100707.84
2019-04-21T00:48:34.383Z,100709.23
2019-04-21T00:51:16.599Z,100707.09
2019-04-21T00:56:23.234Z,100703.62
2019-04-21T00:59:06.874Z,100698.36
2019-04-21T01:01:31.229Z,100692.81
2019-04-21T01:04:23.605Z,100692.41
2019-04-21T01:06:55.914Z,100699.58
2019-04-21T01:09:22.516Z,100692.38
2019-04-21T01:11:51.878Z,100698.37
2019-04-21T01:14:31.511Z,100694.37
2019-04-21T01:16:55.990Z,100683.38
2019-04-21T01:19:17.262Z,100693.78
2019-04-21T01:21:24.053Z,100687.48
2019-04-21T01:23:50.875Z,100682.75
2019-04-21T01:26:31.139Z,100685.11
2019-04-21T01:29:01.272Z,100683.28
2019-04-21T01:31:34.902Z,100676.69
2019-04-21T01:34:03.262Z,100672.91
2019-04-21T01:36:33.784Z,100673.44
2019-04-21T01:39:05.309Z,100672.98
2019-04-21T01:41:35.619Z,100666.70
2019-04-21T01:43:54.533Z,100668.81
2019-04-21T01:46:25.747Z,100664.30
2019-04-21T01:48:49.533Z,100663.10
2019-04-21T01:51:23.593Z,100653.77
2019-04-21T01:54:16.016Z,100658.20
2019-04-21T01:56:46.579Z,100658.23
2019-04-21T01:59:30.562Z,100656.97
2019-04-21T02:02:05.842Z,100654.86
2019-04-21T02:04:41.235Z,100656.02
2019-04-21T02:07:05.070Z,100653.18
2019-04-21T02:12:31.453Z,100646.34
2019-04-21T02:15:20.280Z,100656.41
2019-04-21T02:17:42.131Z,100645.22
2019-04-21T02:19:51.855Z,100642.50
2019-04-21T02:22:28.741Z,100647.94
2019-04-21T02:24:58.365Z,100647.02
2019-04-21T02:27:27.491Z,100642.27
2019-04-21T02:29:58.482Z,100635.36
2019-04-21T02:32:24.365Z,100643.31
2019-04-21T02:35:02.323Z,100636.84
2019-04-21T02:37:36.756Z,100644.12
2019-04-21T02:40:04.672Z,100645.00
2019-04-21T02:42:24.222Z,100638.17
2019-04-21T02:44:52.260Z,100630.33
2019-04-21T02:47:27.456Z,100627.88
2019-04-21T02:52:25.135Z,100622.35
2019-04-21T02:59:50.463Z,100617.78
2019-04-21T03:05:41.748Z,100613.11
2019-04-21T03:08:09.883Z,100615.97
2019-04-21T03:12:54.844Z,100598.69
2019-04-21T03:15:33.181Z,100603.02
2019-04-21T03:17:59.827Z,100594.25
2019-04-21T03:20:23.430Z,100591.44
2019-04-21T03:22:53.516Z,100593.11
2019-04-21T03:27:56.957Z,100590.56
2019-04-21T03:35:54.197Z,100584.54
2019-04-21T03:37:39.830Z,100587.11
2019-04-21T03:40:14.950Z,100588.47
2019-04-21T03:42:42.369Z,100583.59
2019-04-21T03:45:12.768Z,100583.59
2019-04-21T03:47:38.390Z,100549.37
2019-04-21T03:50:14.660Z,100582.46
2019-04-21T03:52:38.785Z,100580.23
2019-04-21T04:00:44.950Z,100583.69
2019-04-21T04:11:43.755Z,100579.01
2019-04-21T04:14:14.134Z,100579.33
2019-04-21T04:16:37.631Z,100573.49
2019-04-21T04:19:09.436Z,100576.02
2019-04-21T04:21:45.117Z,100576.02
2019-04-21T04:24:05.036Z,100573.89
2019-04-21T04:26:39.452Z,100573.05
2019-04-21T04:31:41.753Z,100570.15
2019-04-21T04:39:26.122Z,100573.81
2019-04-21T04:42:16.347Z,100569.14
2019-04-21T04:44:46.592Z,100571.30
2019-04-21T04:47:22.987Z,100572.98
2019-04-21T04:49:54.950Z,100569.91
2019-04-21T05:04:54.859Z,100559.62
2019-04-21T05:07:17.458Z,100559.62
2019-04-21T05:09:39.099Z,100560.13
2019-04-21T05:12:06.005Z,100556.73
2019-04-21T05:14:39.620Z,100556.73
2019-04-21T05:17:02.555Z,100558.81
2019-04-21T05:19:30.483Z,100558.81
2019-04-21T05:22:04.948Z,100557.52
2019-04-21T05:24:24.005Z,100557.52
2019-04-21T05:26:48.010Z,100563.03
2019-04-21T05:32:26.837Z,100569.63
2019-04-21T05:34:55.801Z,100560.77
2019-04-21T05:37:33.276Z,100567.54
2019-04-21T05:39:57.422Z,100560.62
2019-04-21T05:42:25.275Z,100555.97
2019-04-21T05:45:29.417Z,100552.41
2019-04-21T05:47:58.033Z,100559.07
2019-04-21T05:50:19.415Z,100545.94
2019-04-21T05:53:00.229Z,100541.23
2019-04-21T05:55:57.085Z,100541.05
2019-04-21T05:58:05.664Z,100540.92
2019-04-21T06:00:55.601Z,100541.95
2019-04-21T06:03:03.725Z,100529.97
2019-04-21T06:08:08.173Z,100536.32
2019-04-21T06:10:34.640Z,100537.45
2019-04-21T06:13:05.614Z,100531.87
2019-04-21T06:15:34.498Z,100528.10
2019-04-21T06:17:57.165Z,100526.98
2019-04-21T06:20:27.216Z,100520.02
2019-04-21T06:23:00.699Z,100517.47
2019-04-21T06:27:57.190Z,100508.59
2019-04-21T06:30:29.015Z,100509.65
2019-04-21T06:32:52.769Z,100504.45
2019-04-21T06:36:10.186Z,100502.26
2019-04-21T06:38:16.587Z,100498.33
2019-04-21T06:40:46.105Z,100493.26
2019-04-21T06:43:17.952Z,100490.86
2019-04-21T06:45:41.257Z,100485.54
2019-04-21T06:48:10.960Z,100484.03
2019-04-21T06:50:40.085Z,100477.48
2019-04-21T06:53:10.707Z,100471.27
2019-04-21T06:55:37.804Z,100474.51
2019-04-21T06:58:00.679Z,100465.63
2019-04-21T07:00:26.633Z,100467.86
2019-04-21T07:03:08.441Z,100470.34
2019-04-21T07:05:33.617Z,100468.94
2019-04-21T07:08:16.780Z,100469.76
2019-04-21T07:10:26.627Z,100463.98
2019-04-21T07:12:51.942Z,100464.02
2019-04-21T07:15:28.360Z,100464.33
2019-04-21T07:17:54.031Z,100460.95
2019-04-21T07:20:36.787Z,100461.80
2019-04-21T07:22:50.542Z,100462.72
2019-04-21T07:25:33.086Z,100455.30
2019-04-21T07:27:49.485Z,100456.30
2019-04-21T07:30:20.885Z,100456.87
2019-04-21T07:32:49.741Z,100459.45
2019-04-21T07:35:17.184Z,100450.61
2019-04-21T07:37:41.332Z,100450.41
2019-04-21T07:40:07.901Z,100448.80
2019-04-21T07:42:56.135Z,100449.84
2019-04-21T07:45:25.390Z,100449.78
2019-04-21T07:48:01.930Z,100447.39
2019-04-21T07:50:38.906Z,100446.94
2019-04-21T07:53:23.031Z,100443.83
2019-04-21T07:58:12.947Z,100444.74
2019-04-21T08:03:14.184Z,100435.93
2019-04-21T08:05:51.029Z,100434.86
2019-04-21T08:08:12.073Z,100438.33
2019-04-21T08:10:32.738Z,100438.62
2019-04-21T08:13:09.902Z,100439.48
2019-04-21T08:15:40.281Z,100436.94
2019-04-21T08:18:09.210Z,100431.76
2019-04-21T08:20:54.947Z,100425.61
2019-04-21T08:23:29.374Z,100424.35
2019-04-21T08:26:03.670Z,100431.23
2019-04-21T08:28:24.089Z,100424.49
2019-04-21T08:30:47.334Z,100423.33
2019-04-21T08:33:30.595Z,100426.12
2019-04-21T08:38:13.553Z,100419.81
2019-04-21T08:40:40.912Z,100418.80
2019-04-21T08:43:20.503Z,100409.70
2019-04-21T08:45:45.289Z,100409.87
2019-04-21T08:48:10.237Z,100408.44
2019-04-21T08:50:37.411Z,100403.66
2019-04-21T08:53:07.945Z,100403.66
2019-04-21T08:55:49.293Z,100390.89
2019-04-21T08:58:24.000Z,100401.01
2019-04-21T09:01:09.219Z,100399.34
2019-04-21T09:03:56.479Z,100390.05
2019-04-21T09:06:40.392Z,100390.84
2019-04-21T09:08:55.198Z,100386.64
2019-04-21T09:11:17.698Z,100381.62
2019-04-21T09:13:50.689Z,100384.56
2019-04-21T09:16:15.394Z,100374.58
2019-04-21T09:18:41.500Z,100375.40
2019-04-21T09:21:19.494Z,100368.92
2019-04-21T09:23:45.244Z,100368.69
2019-04-21T09:26:14.090Z,100365.04
2019-04-21T09:28:37.074Z,100369.82
2019-04-21T09:30:57.327Z,100359.95
2019-04-21T09:33:20.813Z,100358.87
2019-04-21T09:35:55.555Z,100359.16
2019-04-21T09:38:27.575Z,100356.18
2019-04-21T09:40:48.979Z,100349.59
2019-04-21T09:43:19.232Z,100349.56
2019-04-21T09:45:43.039Z,100348.73
2019-04-21T09:48:16.460Z,100348.33
2019-04-21T09:50:39.715Z,100337.48
2019-04-21T09:53:18.151Z,100337.70
2019-04-21T09:55:45.251Z,100341.43
2019-04-21T09:58:15.169Z,100335.14
2019-04-21T10:00:46.342Z,100328.02
2019-04-21T10:03:08.401Z,100325.16
2019-04-21T10:05:31.692Z,100321.51
2019-04-21T10:08:01.061Z,100320.12
2019-04-21T10:10:27.615Z,100312.73
2019-04-21T10:12:54.564Z,100309.33
2019-04-21T10:15:24.250Z,100311.25
2019-04-21T10:17:56.199Z,100311.20
2019-04-21T10:20:24.401Z,100304.63
2019-04-21T10:22:51.479Z,100303.67
2019-04-21T10:25:18.709Z,100306.48
2019-04-21T10:27:45.791Z,100291.27
2019-04-21T10:30:14.379Z,100282.88
2019-04-21T10:32:42.681Z,100284.30
2019-04-21T10:35:10.788Z,100284.30
2019-04-21T10:37:49.838Z,100278.64
2019-04-21T10:40:07.664Z,100280.58
2019-04-21T10:42:35.475Z,100282.09
2019-04-21T10:45:03.323Z,100273.92
2019-04-21T10:47:31.289Z,100276.28
2019-04-21T10:49:58.374Z,100259.02
2019-04-21T10:52:43.187Z,100263.02
2019-04-21T10:55:28.974Z,100261.70
2019-04-21T10:57:40.677Z,100249.09
2019-04-21T11:00:17.573Z,100253.22
2019-04-21T11:02:48.835Z,100251.34
2019-04-21T11:05:16.736Z,100248.50
2019-04-21T11:08:02.479Z,100245.71
2019-04-21T11:10:16.466Z,100243.34
2019-04-21T11:12:44.736Z,100235.91
2019-04-21T11:15:12.089Z,100237.42
2019-04-21T11:17:40.681Z,100233.14
2019-04-21T11:20:08.799Z,100232.73
2019-04-21T11:22:36.922Z,100224.77
2019-04-21T11:25:04.910Z,100227.52
2019-04-21T11:27:33.176Z,100223.94
2019-04-21T11:29:59.871Z,100215.95
2019-04-21T11:32:27.356Z,100227.32
2019-04-21T11:34:54.913Z,100222.33
2019-04-21T11:37:28.157Z,100208.48
2019-04-21T11:40:00.150Z,100211.11
2019-04-21T11:42:30.042Z,100205.02
2019-04-21T11:44:57.561Z,100189.69
2019-04-21T11:47:30.331Z,100134.04
2019-04-21T11:49:57.211Z,100186.52
2019-04-21T11:52:25.051Z,100196.58
2019-04-21T11:54:53.054Z,100197.48
2019-04-21T11:57:24.828Z,100186.50
2019-04-21T11:59:48.649Z,100184.10
2019-04-21T12:02:15.462Z,100187.48
2019-04-21T12:04:43.408Z,100194.41
2019-04-21T12:07:11.378Z,100190.39
2019-04-21T12:09:39.487Z,100187.02
2019-04-21T12:12:07.459Z,100176.52
2019-04-21T12:14:34.388Z,100183.36
2019-04-21T12:17:01.128Z,100169.20
2019-04-21T12:19:30.566Z,100176.25
2019-04-21T12:22:08.117Z,100178.70
2019-04-21T12:24:30.000Z,100166.41
2019-04-21T12:26:56.072Z,100160.08
2019-04-21T12:29:22.846Z,100156.95
2019-04-21T12:32:05.792Z,100152.02
2019-04-21T12:34:34.176Z,100146.98
2019-04-21T12:37:01.236Z,100146.03
2019-04-21T12:39:28.112Z,100145.71
2019-04-21T12:41:56.082Z,100141.70
2019-04-21T12:44:24.317Z,100146.47
2019-04-21T12:46:51.976Z,100130.42
2019-04-21T12:49:19.979Z,100130.63
2019-04-21T12:51:48.055Z,100127.50
2019-04-21T12:54:15.482Z,100113.56
2019-04-21T12:56:43.331Z,100123.15
2019-04-21T12:59:12.122Z,100109.73
2019-04-21T13:01:39.075Z,100111.14
2019-04-21T13:04:05.995Z,100101.69
2019-04-21T13:06:33.837Z,100110.10
2019-04-21T13:09:05.248Z,100093.80
2019-04-21T13:11:30.880Z,100084.91
2019-04-21T13:13:57.865Z,100078.42
2019-04-21T13:16:25.435Z,100081.77
2019-04-21T13:18:53.423Z,100080.34
2019-04-21T13:21:20.422Z,100073.89
2019-04-21T13:23:47.335Z,100063.91
2019-04-21T13:26:15.093Z,100060.77
2019-04-21T13:28:42.858Z,100060.36
2019-04-21T13:31:09.651Z,100059.22
2019-04-21T13:33:37.740Z,100052.44
2019-04-21T13:36:07.523Z,100047.32
2019-04-21T13:38:42.726Z,100043.64
2019-04-21T13:41:40.868Z,100047.44
2019-04-21T13:44:11.045Z,100046.33
2019-04-21T13:46:38.676Z,100027.37
2019-04-21T13:49:05.520Z,100027.47
2019-04-21T13:51:32.307Z,100023.52
2019-04-21T13:53:59.676Z,100022.42
2019-04-21T13:56:46.916Z,100025.56
2019-04-21T13:59:14.117Z,100019.69
2019-04-21T14:01:41.393Z,100020.41
2019-04-21T14:04:09.547Z,100025.12
2019-04-21T14:06:36.557Z,100008.57
2019-04-21T14:09:07.689Z,100012.32
2019-04-21T14:11:35.478Z,100007.53
2019-04-21T14:14:02.677Z,99998.69
2019-04-21T14:16:29.876Z,99999.41
2019-04-21T14:18:59.212Z,99997.43
2019-04-21T14:21:27.243Z,99997.59
2019-04-21T14:23:54.633Z,99985.02
2019-04-21T14:26:22.720Z,99988.94
2019-04-21T14:28:49.429Z,99983.30
2019-04-21T14:31:16.608Z,99982.89
2019-04-21T14:33:43.748Z,99979.36
2019-04-21T14:36:10.740Z,99983.11
2019-04-21T14:38:38.624Z,99982.27
2019-04-21T14:41:06.151Z,99972.18
2019-04-21T14:43:34.116Z,99968.77
2019-04-21T14:46:09.346Z,99964.13
2019-04-21T14:49:01.481Z,99962.00
2019-04-21T14:51:37.016Z,99965.92
2019-04-21T14:54:36.484Z,99957.51
2019-04-21T14:57:05.196Z,99964.11
2019-04-21T14:59:33.254Z,99960.34
2019-04-21T15:02:01.994Z,99954.64
2019-04-21T15:04:29.064Z,99956.74
2019-04-21T15:06:56.985Z,99947.17
2019-04-21T15:09:25.272Z,99943.94
2019-04-21T15:11:52.132Z,99942.86
2019-04-21T15:14:20.103Z,99943.06
2019-04-21T15:16:47.127Z,99939.27
2019-04-21T15:19:14.795Z,99937.77
2019-04-21T15:21:42.512Z,99931.30
2019-04-21T15:24:09.450Z,99935.78
2019-04-21T15:26:36.262Z,99941.52
2019-04-21T15:29:03.354Z,99931.00
2019-04-21T15:31:34.814Z,99927.03
2019-04-21T15:34:01.230Z,99927.03
2019-04-21T15:36:31.550Z,99919.59
2019-04-21T15:38:57.940Z,99916.00
2019-04-21T15:41:24.947Z,99911.52
2019-04-21T15:43:51.736Z,99916.91
2019-04-21T15:46:18.564Z,99895.66
2019-04-21T15:48:45.112Z,99909.59
2019-04-21T15:51:11.933Z,99910.77
2019-04-21T15:53:39.623Z,99907.14
2019-04-21T15:56:17.371Z,99901.70
2019-04-21T15:59:16.635Z,99898.44
2019-04-21T16:01:50.649Z,99906.62
2019-04-21T16:04:18.852Z,99898.77
2019-04-21T16:06:45.854Z,99901.22
2019-04-21T16:09:20.962Z,99898.21
2019-04-21T16:11:42.048Z,99898.20
2019-04-21T16:14:10.143Z,99899.41
2019-04-21T16:16:37.188Z,99891.61
2019-04-21T16:19:04.075Z,99893.05
2019-04-21T16:21:31.802Z,99892.70
2019-04-21T16:24:00.467Z,99890.03
2019-04-21T16:26:28.774Z,99877.88
2019-04-21T16:28:55.694Z,99888.80
2019-04-21T16:31:22.585Z,99878.50
2019-04-21T16:33:49.288Z,99879.28
2019-04-21T16:36:17.098Z,99875.27
2019-04-21T16:38:44.796Z,99870.93
2019-04-21T16:41:12.131Z,99866.46
2019-04-21T16:43:38.994Z,99870.87
2019-04-21T16:46:06.851Z,99868.16
2019-04-21T16:48:33.899Z,99873.41
2019-04-21T16:51:01.665Z,99861.12
2019-04-21T16:53:35.508Z,99872.91
2019-04-21T16:56:17.781Z,99865.91
2019-04-21T16:58:48.379Z,99866.52
2019-04-21T17:01:25.695Z,99861.03
2019-04-21T17:03:52.921Z,99858.00
2019-04-21T17:06:19.731Z,99859.34
2019-04-21T17:08:47.157Z,99860.77
2019-04-21T17:11:21.627Z,99859.05
2019-04-21T17:13:42.815Z,99862.37
2019-04-21T17:16:38.643Z,99856.86
2019-04-21T17:18:52.822Z,99857.01
2019-04-21T17:21:08.510Z,99858.56
2019-04-21T17:23:35.617Z,99855.87
2019-04-21T17:26:03.373Z,99860.36
2019-04-21T17:28:30.326Z,99853.33
2019-04-21T17:30:58.157Z,99853.55
2019-04-21T17:33:27.995Z,99851.91
2019-04-21T17:35:56.421Z,99851.13
2019-04-21T17:38:23.996Z,99855.34
2019-04-21T17:40:51.789Z,99849.92
2019-04-21T17:43:19.837Z,99850.45
2019-04-21T17:45:46.799Z,99857.61
2019-04-21T17:48:16.243Z,99850.31
2019-04-21T17:51:31.926Z,99850.66
2019-04-21T17:54:08.247Z,99853.83
2019-04-21T17:56:59.566Z,99849.91
2019-04-21T17:59:28.043Z,99848.06
2019-04-21T18:01:49.966Z,99845.77
2019-04-21T18:04:21.220Z,99850.50
2019-04-21T18:07:02.374Z,99853.81
2019-04-21T18:09:44.110Z,99852.25
2019-04-21T18:12:24.108Z,99853.86
2019-04-21T18:14:36.773Z,99857.01
2019-04-21T18:17:04.550Z,99859.68
2019-04-21T18:19:36.377Z,99856.80
2019-04-21T18:22:09.059Z,99867.22
2019-04-21T18:24:47.845Z,99861.84
2019-04-21T18:27:09.200Z,99874.02
2019-04-21T18:29:36.593Z,99872.66
2019-04-21T18:32:03.771Z,99868.36
2019-04-21T18:34:56.268Z,99874.72
2019-04-21T18:37:45.755Z,99872.25
2019-04-21T18:40:18.781Z,99873.62
2019-04-21T18:43:05.545Z,99871.73
2019-04-21T18:46:00.679Z,99872.87
2019-04-21T18:48:30.627Z,99872.45
2019-04-21T18:51:34.903Z,99868.56
2019-04-21T18:54:22.675Z,99868.52
2019-04-21T18:56:29.551Z,99866.61
2019-04-21T18:58:56.557Z,99867.09
2019-04-21T19:01:27.745Z,99875.84
2019-04-21T19:03:55.652Z,99870.95
2019-04-21T19:06:40.770Z,99875.37
2019-04-21T19:09:11.989Z,99871.16
2019-04-21T19:11:35.961Z,99874.92
2019-04-21T19:19:41.243Z,99875.61
2019-04-21T19:21:55.485Z,99883.95
2019-04-21T19:29:24.084Z,99879.83
2019-04-21T19:31:49.268Z,99878.86
2019-04-21T19:34:08.402Z,99876.37
2019-04-21T19:36:30.439Z,99874.56
2019-04-21T19:39:06.769Z,99872.94
2019-04-21T19:41:34.249Z,99874.05
2019-04-21T19:44:13.358Z,99881.38
2019-04-21T19:46:35.688Z,99870.59
2019-04-21T19:49:16.896Z,99869.95
2019-04-21T19:51:33.931Z,99876.48
2019-04-21T19:54:00.709Z,99878.73
2019-04-21T19:56:18.547Z,99873.16
2019-04-21T19:58:47.429Z,99871.64
2019-04-21T20:01:14.237Z,99873.53
2019-04-21T20:03:43.089Z,99861.98
2019-04-21T20:06:22.187Z,99865.60
2019-04-21T20:09:02.358Z,99863.01
2019-04-21T20:11:28.182Z,99853.17
2019-04-21T20:14:03.315Z,99861.28
2019-04-21T20:16:23.085Z,99857.50
2019-04-21T20:18:40.424Z,99856.48
2019-04-21T20:21:02.010Z,99855.52
2019-04-21T20:23:34.825Z,99852.69
2019-04-21T20:26:02.286Z,99851.39
2019-04-21T20:28:36.899Z,99850.39
2019-04-21T20:31:14.724Z,99850.63
2019-04-21T20:36:20.096Z,99850.63
2019-04-21T20:38:34.046Z,99848.81
2019-04-21T20:40:59.128Z,99848.62
2019-04-21T20:43:36.557Z,99847.27
2019-04-21T20:46:02.401Z,99850.31
2019-04-21T20:48:29.628Z,99848.97
2019-04-21T20:51:00.347Z,99850.86
2019-04-21T20:53:31.378Z,99847.47
2019-04-21T20:55:52.783Z,99851.02
2019-04-21T20:58:30.336Z,99848.13
2019-04-21T21:01:18.990Z,99854.86
2019-04-21T21:03:24.748Z,99848.02
2019-04-21T21:05:49.378Z,99847.31
2019-04-21T21:08:24.630Z,99844.22
2019-04-21T21:10:43.863Z,99844.61
2019-04-21T21:13:26.421Z,99851.95
2019-04-21T21:15:51.371Z,99848.45
2019-04-21T21:18:27.067Z,99850.23
2019-04-21T21:20:49.659Z,99850.99
2019-04-21T21:23:09.489Z,99843.91
2019-04-21T21:25:46.227Z,99838.59
2019-04-21T21:28:04.365Z,99845.42
2019-04-21T21:30:34.632Z,99838.64
2019-04-21T21:33:11.289Z,99838.94
2019-04-21T21:35:30.381Z,99834.91
2019-04-21T21:38:06.762Z,99833.37
2019-04-21T21:40:30.471Z,99833.84
2019-04-21T21:42:48.078Z,99838.27
2019-04-21T21:45:18.382Z,99841.50
2019-04-21T21:48:01.010Z,99833.50
2019-04-21T21:50:23.311Z,99835.45
2019-04-21T21:52:51.238Z,99830.86
2019-04-21T21:55:11.930Z,99829.55
2019-04-21T21:57:43.903Z,99829.55
2019-04-21T22:00:13.314Z,99825.05
2019-04-21T22:02:44.393Z,99829.49
2019-04-21T22:05:14.317Z,99827.42
2019-04-21T22:07:37.120Z,99822.72
2019-04-21T22:10:06.447Z,99820.88
2019-04-21T22:12:44.416Z,99824.91
2019-04-21T22:15:10.091Z,99829.14
2019-04-21T22:17:42.898Z,99827.69
2019-04-21T22:20:17.089Z,99826.09
2019-04-21T22:22:38.913Z,99828.53
2019-04-21T22:25:09.076Z,99829.62
2019-04-21T22:27:25.518Z,99828.03
2019-04-21T22:29:57.174Z,99822.88
2019-04-21T22:32:27.075Z,99823.95
2019-04-21T22:34:54.726Z,99820.88
2019-04-21T22:37:34.841Z,99821.87
2019-04-21T22:40:02.150Z,99816.27
2019-04-21T22:42:23.457Z,99821.04
2019-04-21T22:44:44.506Z,99821.59
2019-04-21T22:47:17.721Z,99817.56
2019-04-21T22:49:40.935Z,99821.21
2019-04-21T22:52:13.938Z,99822.80
2019-04-21T22:54:40.903Z,99818.33
2019-04-21T22:57:12.802Z,99819.42
2019-04-21T22:59:35.689Z,99816.72
2019-04-21T23:02:06.363Z,99825.22
2019-04-21T23:04:39.074Z,99821.02
2019-04-21T23:07:07.030Z,99816.33
2019-04-21T23:09:30.741Z,99810.49
2019-04-21T23:11:59.553Z,99815.23
2019-04-21T23:14:27.971Z,99815.58
2019-04-21T23:17:14.955Z,99814.09
2019-04-21T23:19:37.694Z,99819.71
2019-04-21T23:22:12.110Z,99818.78
2019-04-21T23:24:43.479Z,99818.91
2019-04-21T23:26:59.810Z,99808.22
2019-04-21T23:29:47.875Z,99809.42
2019-04-21T23:32:03.208Z,99807.80
2019-04-21T23:34:23.173Z,99807.56
2019-04-21T23:36:53.028Z,99811.22
2019-04-21T23:39:21.075Z,99815.55
2019-04-21T23:41:47.904Z,99806.89
2019-04-21T23:44:13.678Z,99807.86
2019-04-21T23:46:40.513Z,99799.47
2019-04-21T23:49:39.285Z,99797.10
2019-04-21T23:52:01.461Z,99795.02
2019-04-21T23:54:25.207Z,99791.29
2019-04-21T23:56:53.585Z,99803.20
2019-04-21T23:59:20.756Z,99792.69
